Time;durP1;ratioP1;P1;durP2;ratioP2;P2;SDS_P1;SDS_P2;PMS_P1;PMS_P2;Temp;Humidity;BMP_temperature;BMP_pressure;BME280_temperature;BME280_humidity;BME280_pressure;Samples;Min_cycle;Max_cycle;Signal;HPM_P1;HPM_P2
2023/04/06 00:00:35;;;;;;;16.23;6.50;;;0.00;99.90;;;-1.71;100.00;101738.34;4978446;28;20031;-73
2023/04/06 00:03:01;;;;;;;17.40;7.55;;;0.00;99.90;;;-1.63;100.00;101742.81;4977436;28;20058;-74
2023/04/06 00:05:30;;;;;;;15.00;5.78;;;0.10;99.90;;;-1.59;100.00;101729.13;4970730;28;20105;-74
2023/04/06 00:07:57;;;;;;;10.20;5.18;;;0.10;99.90;;;-1.60;100.00;101728.22;4973773;28;20035;-73
2023/04/06 00:10:23;;;;;;;12.45;5.55;;;0.10;99.90;;;-1.59;100.00;101730.00;4975918;28;20046;-73
2023/04/06 00:12:49;;;;;;;19.83;5.90;;;0.10;99.90;;;-1.58;100.00;101728.25;4968717;28;20035;-74
2023/04/06 00:15:15;;;;;;;16.00;7.40;;;0.20;99.90;;;-1.57;100.00;101728.31;4977246;28;20042;-74
2023/04/06 00:17:41;;;;;;;26.55;11.73;;;0.20;99.90;;;-1.47;100.00;101732.81;4976078;28;20410;-74
2023/04/06 00:20:08;;;;;;;28.45;10.25;;;0.30;99.90;;;-1.43;100.00;101728.56;4973795;28;20034;-73
2023/04/06 00:22:34;;;;;;;18.33;6.10;;;0.30;99.90;;;-1.37;100.00;101733.84;4970312;28;20042;-73
2023/04/06 00:25:00;;;;;;;11.60;5.03;;;0.30;99.90;;;-1.31;100.00;101735.69;4977169;28;20552;-74
2023/04/06 00:27:26;;;;;;;13.45;5.32;;;0.40;99.90;;;-1.27;100.00;101733.16;4974472;28;20027;-74
2023/04/06 00:29:53;;;;;;;15.98;5.20;;;0.50;99.90;;;-1.22;100.00;101727.22;4968873;28;20611;-73
2023/04/06 00:32:19;;;;;;;9.95;4.75;;;0.50;99.90;;;-1.13;100.00;101729.97;4974974;28;20034;-73
2023/04/06 00:34:45;;;;;;;10.73;5.15;;;0.50;99.90;;;-1.08;100.00;101729.22;4959339;28;20812;-73
2023/04/06 00:37:12;;;;;;;10.27;4.80;;;0.60;99.90;;;-0.98;100.00;101725.06;4977393;28;20046;-73
2023/04/06 00:39:37;;;;;;;15.38;6.80;;;0.70;99.90;;;-0.87;100.00;101735.56;4975895;28;20436;-73
2023/04/06 00:42:14;;;;;;;14.48;4.57;;;0.80;99.90;;;-0.77;100.00;101724.53;4969897;28;20109;-73
2023/04/06 00:44:43;;;;;;;10.82;4.57;;;0.90;99.90;;;-0.66;100.00;101733.31;4986232;28;20031;-73
2023/04/06 00:47:10;;;;;;;9.00;4.32;;;0.90;99.90;;;-0.57;100.00;101732.59;4971683;28;20130;-74
2023/04/06 00:49:38;;;;;;;9.38;4.50;;;1.00;99.90;;;-0.47;99.75;101725.88;4972253;28;20034;-74
2023/04/06 00:52:04;;;;;;;8.95;4.30;;;;;;;-0.38;98.47;101731.16;4985836;28;20035;-74
2023/04/06 00:54:30;;;;;;;10.55;4.72;;;1.20;99.90;;;-0.30;98.07;101720.91;4960388;28;20080;-74
2023/04/06 00:56:57;;;;;;;11.50;4.75;;;1.20;99.90;;;-0.28;97.67;101722.69;4977209;28;20429;-73
2023/04/06 00:59:22;;;;;;;10.30;4.75;;;1.30;99.90;;;-0.26;97.47;101717.50;4979382;28;21283;-74
2023/04/06 01:01:48;;;;;;;9.82;4.75;;;1.30;99.90;;;-0.22;97.25;101708.94;4975035;28;20133;-73
2023/04/06 01:04:14;;;;;;;11.35;5.55;;;1.40;99.90;;;-0.21;96.78;101716.75;4975596;28;20045;-74
2023/04/06 01:06:40;;;;;;;12.25;4.13;;;1.40;99.90;;;-0.16;97.24;101713.34;4965700;28;20534;-73
2023/04/06 01:09:06;;;;;;;10.63;3.95;;;1.40;99.90;;;-0.13;96.88;101715.97;4978236;28;20034;-74
2023/04/06 01:11:32;;;;;;;9.30;4.72;;;1.40;99.90;;;-0.12;96.24;101708.22;4957105;28;20041;-74
2023/04/06 01:13:58;;;;;;;8.95;4.30;;;1.40;99.90;;;-0.16;96.39;101708.16;4959623;28;20035;-73
2023/04/06 01:16:25;;;;;;;7.88;4.30;;;1.40;99.90;;;-0.16;96.35;101703.00;4974575;28;20573;-75
2023/04/06 01:18:51;;;;;;;12.68;4.93;;;1.40;99.90;;;-0.21;96.36;101698.63;4972652;28;20046;-74
2023/04/06 01:21:17;;;;;;;11.60;4.72;;;1.40;99.90;;;-0.22;95.81;101703.75;4975911;28;20049;-74
2023/04/06 01:23:46;;;;;;;11.00;4.43;;;1.40;99.90;;;-0.28;96.39;101701.09;4957872;28;20062;-73
2023/04/06 01:26:13;;;;;;;11.30;5.05;;;1.40;99.90;;;-0.27;96.57;101695.94;4975264;28;20037;-73
2023/04/06 01:28:39;;;;;;;11.25;4.18;;;1.40;99.90;;;-0.24;96.75;101706.34;4973716;28;20027;-74
2023/04/06 01:31:09;;;;;;;11.27;4.75;;;1.40;99.90;;;-0.25;96.08;101694.25;4981764;28;20038;-74
2023/04/06 01:33:35;;;;;;;9.63;4.35;;;1.40;99.90;;;-0.24;96.53;101696.00;4976599;28;20637;-74
2023/04/06 01:36:02;;;;;;;8.85;4.60;;;1.30;99.90;;;-0.27;96.24;101695.94;4959506;28;20023;-74
2023/04/06 01:38:29;;;;;;;9.73;4.60;;;1.40;99.90;;;-0.28;96.01;101689.03;4952648;28;20054;-74
2023/04/06 01:40:55;;;;;;;9.68;5.00;;;1.30;99.90;;;-0.26;96.11;101700.28;4985244;28;21473;-73
2023/04/06 01:43:21;;;;;;;10.68;4.53;;;1.30;99.90;;;-0.31;96.21;101694.16;4989734;28;20705;-74
2023/04/06 01:45:47;;;;;;;11.82;4.50;;;1.30;99.90;;;-0.37;96.64;101698.38;4960730;28;20114;-73
2023/04/06 01:48:12;;;;;;;10.00;4.50;;;1.30;99.90;;;-0.37;96.98;101696.66;4976465;28;20554;-74
2023/04/06 01:50:38;;;;;;;7.15;4.32;;;1.30;99.90;;;-0.45;96.84;101696.56;4970375;28;20506;-74
2023/04/06 01:53:04;;;;;;;12.75;4.70;;;1.20;99.90;;;-0.55;97.25;101697.28;4972568;28;20035;-73
2023/04/06 01:55:30;;;;;;;10.88;4.57;;;1.20;99.90;;;-0.52;97.88;101688.69;4972231;28;20058;-73
2023/04/06 01:57:56;;;;;;;8.63;4.97;;;1.20;99.90;;;-0.52;97.82;101684.41;4971792;28;20478;-74
2023/04/06 02:00:22;;;;;;;14.10;4.63;;;1.10;99.90;;;-0.58;97.67;101688.59;4968564;28;20047;-74
2023/04/06 02:02:48;;;;;;;12.05;4.90;;;1.10;99.90;;;-0.65;97.90;101690.22;4969363;28;20093;-74
2023/04/06 02:05:14;;;;;;;9.30;4.97;;;1.10;99.90;;;-0.72;98.10;101678.06;4959544;28;20046;-74
2023/04/06 02:07:40;;;;;;;12.68;5.45;;;1.00;99.90;;;-0.76;98.46;101679.72;4970477;28;20442;-74
2023/04/06 02:10:13;;;;;;;10.52;4.80;;;1.00;99.90;;;-0.82;99.02;101690.00;4968497;28;20555;-73
2023/04/06 02:12:39;;;;;;;16.92;4.35;;;0.90;99.90;;;-0.83;99.36;101683.06;4976091;28;20069;-73
2023/04/06 02:15:05;;;;;;;10.95;4.50;;;0.90;99.90;;;-0.81;99.84;101688.25;4975352;28;21033;-73
2023/04/06 02:17:31;;;;;;;14.02;4.97;;;0.90;99.90;;;-0.77;99.93;101682.28;4976012;28;20508;-73
2023/04/06 02:19:57;;;;;;;11.38;5.10;;;0.90;99.90;;;-0.80;100.00;101677.91;4975175;28;20049;-73
2023/04/06 02:22:23;;;;;;;11.65;5.43;;;0.90;99.90;;;-0.86;100.00;101678.72;4972693;28;20049;-73
2023/04/06 02:24:49;;;;;;;11.23;5.22;;;0.90;99.90;;;-0.86;100.00;101683.03;4968893;28;20030;-73
2023/04/06 02:27:15;;;;;;;12.77;4.78;;;0.80;99.90;;;-0.94;100.00;101677.72;4976476;28;20523;-73
2023/04/06 02:29:41;;;;;;;10.35;4.85;;;0.70;99.90;;;-1.04;100.00;101673.22;4971397;28;20615;-73
2023/04/06 02:32:07;;;;;;;8.13;4.57;;;0.70;99.90;;;-1.12;100.00;101680.88;4971551;28;20726;-73
2023/04/06 02:34:33;;;;;;;9.32;4.75;;;0.60;99.90;;;-1.16;100.00;101673.91;4970297;28;20030;-73
2023/04/06 02:36:59;;;;;;;11.90;5.40;;;0.60;99.90;;;-1.17;100.00;101671.31;4976393;28;20371;-73
2023/04/06 02:39:25;;;;;;;12.60;5.63;;;0.60;99.90;;;-1.22;100.00;101678.13;4970281;28;20065;-73
2023/04/06 02:41:51;;;;;;;15.15;6.30;;;0.50;99.90;;;-1.22;100.00;101683.28;4962906;28;20038;-72
2023/04/06 02:44:17;;;;;;;12.93;5.75;;;0.50;99.90;;;-1.29;100.00;101679.72;4956976;28;20038;-73
2023/04/06 02:46:43;;;;;;;10.60;5.78;;;0.50;99.90;;;-1.33;100.00;101680.50;4978554;28;20030;-73
2023/04/06 02:49:09;;;;;;;13.38;5.63;;;0.40;99.90;;;-1.39;100.00;101680.41;4973189;28;20097;-73
2023/04/06 02:51:35;;;;;;;14.50;6.47;;;0.40;99.90;;;-1.41;100.00;101677.78;4976344;28;20031;-73
2023/04/06 02:54:01;;;;;;;9.82;5.55;;;0.30;99.90;;;-1.52;100.00;101680.19;4961865;28;20043;-72
2023/04/06 02:56:26;;;;;;;11.13;5.55;;;0.30;99.90;;;-1.54;100.00;101676.69;4979986;28;20491;-73
2023/04/06 02:58:52;;;;;;;10.25;5.88;;;0.20;99.90;;;-1.54;100.00;101679.28;4975506;28;20054;-72
2023/04/06 03:01:18;;;;;;;17.60;5.80;;;0.20;99.90;;;-1.54;100.00;101670.66;4974065;28;20062;-71
2023/04/06 03:03:44;;;;;;;13.45;6.20;;;0.20;99.90;;;-1.48;100.00;101676.81;4964516;28;20019;-72
2023/04/06 03:06:10;;;;;;;15.00;5.95;;;0.30;99.90;;;-1.31;100.00;101674.53;4990255;28;20080;-72
2023/04/06 03:08:36;;;;;;;10.55;6.03;;;0.40;99.90;;;-1.28;100.00;101677.16;4979564;28;20104;-73
2023/04/06 03:11:02;;;;;;;12.40;6.07;;;0.40;99.90;;;-1.20;100.00;101676.44;4976397;28;20039;-72
2023/04/06 03:13:28;;;;;;;14.05;6.85;;;0.50;99.90;;;-1.16;100.00;101679.09;4976719;28;20060;-73
2023/04/06 03:15:54;;;;;;;12.07;6.03;;;0.50;99.90;;;-1.17;100.00;101681.63;4979258;28;20112;-73
2023/04/06 03:18:25;;;;;;;13.40;6.95;;;0.50;99.90;;;-1.24;100.00;101678.94;4981817;28;20027;-72
2023/04/06 03:20:55;;;;;;;17.90;6.93;;;0.50;99.90;;;-1.21;100.00;101680.72;4979723;28;20503;-72
2023/04/06 03:23:21;;;;;;;13.48;6.90;;;0.50;99.90;;;-1.14;100.00;101681.72;4987162;28;20121;-72
2023/04/06 03:25:47;;;;;;;13.35;7.00;;;0.50;99.90;;;-1.10;100.00;101680.88;4975367;28;20089;-72
2023/04/06 03:28:13;;;;;;;15.77;7.60;;;0.60;99.90;;;-1.08;100.00;101692.13;4980182;28;20470;-72
2023/04/06 03:30:38;;;;;;;14.75;7.90;;;0.60;99.90;;;-1.08;100.00;101686.97;4975351;28;20031;-72
2023/04/06 03:33:04;;;;;;;14.05;6.63;;;0.60;99.90;;;-1.09;100.00;101688.69;4977545;28;20027;-72
2023/04/06 03:35:30;;;;;;;12.35;6.10;;;0.60;99.90;;;-1.07;100.00;101691.28;4955059;28;20050;-72
2023/04/06 03:37:57;;;;;;;12.30;6.43;;;0.60;99.90;;;-1.08;100.00;101695.59;4977034;28;20034;-72
2023/04/06 03:40:23;;;;;;;12.82;7.20;;;0.60;99.90;;;-1.10;100.00;101694.72;4973502;28;20034;-72
2023/04/06 03:42:49;;;;;;;14.27;7.07;;;0.60;99.90;;;-1.15;100.00;101698.91;4966650;28;20093;-72
2023/04/06 03:45:15;;;;;;;11.73;5.15;;;0.60;99.90;;;-1.16;100.00;101693.72;4986780;28;20045;-72
2023/04/06 03:47:41;;;;;;;14.25;7.15;;;0.60;99.90;;;-1.16;100.00;101692.00;4970380;28;20038;-72
2023/04/06 03:50:07;;;;;;;15.80;7.40;;;0.60;99.90;;;-1.17;100.00;101700.59;4975751;28;20096;-71
2023/04/06 03:52:33;;;;;;;14.45;8.63;;;0.60;99.90;;;-1.14;100.00;101698.06;4971119;28;20038;-72
2023/04/06 03:54:59;;;;;;;20.27;9.45;;;0.60;99.90;;;-1.12;100.00;101698.13;4977673;28;20031;-72
2023/04/06 03:57:24;;;;;;;18.90;8.77;;;0.60;99.90;;;-1.15;100.00;101701.50;4977108;28;20038;-72
2023/04/06 03:59:50;;;;;;;16.70;8.98;;;0.60;99.90;;;-1.19;100.00;101706.59;4970016;28;20038;-71
2023/04/06 04:02:16;;;;;;;16.63;8.32;;;0.60;99.90;;;-1.26;100.00;101705.59;4974423;28;20125;-71
2023/04/06 04:04:42;;;;;;;15.55;6.70;;;0.60;99.90;;;-1.31;100.00;101707.25;4965612;28;20035;-71
2023/04/06 04:07:08;;;;;;;18.02;8.00;;;0.50;99.90;;;-1.33;100.00;101701.19;4970378;28;20038;-71
2023/04/06 04:09:34;;;;;;;21.58;9.23;;;0.50;99.90;;;-1.34;100.00;101702.91;4970813;28;20035;-72
2023/04/06 04:12:00;;;;;;;22.05;9.75;;;0.50;99.90;;;-1.34;100.00;101707.19;4975330;28;20030;-72
2023/04/06 04:14:26;;;;;;;17.17;9.77;;;0.50;99.90;;;-1.32;100.00;101708.09;4974576;28;20030;-71
2023/04/06 04:16:52;;;;;;;16.52;8.15;;;0.50;99.90;;;-1.38;100.00;101710.53;4973217;28;20064;-72
2023/04/06 04:19:18;;;;;;;19.95;10.32;;;0.40;99.90;;;-1.37;100.00;101717.47;4973100;28;20419;-71
2023/04/06 04:21:45;;;;;;;20.02;10.30;;;0.40;99.90;;;-1.28;100.00;101709.88;4973280;28;20035;-71
2023/04/06 04:24:12;;;;;;;20.30;10.30;;;0.50;99.90;;;-1.32;100.00;101719.31;4970555;28;20143;-71
2023/04/06 04:26:40;;;;;;;16.23;8.77;;;0.40;99.90;;;-1.36;100.00;101717.50;4955485;28;20073;-71
2023/04/06 04:29:06;;;;;;;19.45;10.50;;;0.40;99.90;;;-1.34;100.00;101712.34;4972983;28;20055;-71
2023/04/06 04:31:32;;;;;;;23.08;10.52;;;0.40;99.90;;;-1.31;100.00;101723.63;4983115;28;20085;-71
2023/04/06 04:33:59;;;;;;;19.42;11.23;;;0.50;99.90;;;-1.24;100.00;101724.59;4976241;28;20089;-71
2023/04/06 04:36:26;;;;;;;26.02;11.32;;;0.50;99.90;;;-1.20;100.00;101726.41;4974102;28;20406;-72
2023/04/06 04:38:52;;;;;;;24.85;11.63;;;0.50;99.90;;;-1.22;100.00;101720.34;4979303;28;20038;-71
2023/04/06 04:41:18;;;;;;;21.92;10.48;;;0.50;99.90;;;-1.22;100.00;101722.06;4976315;28;20041;-71
2023/04/06 04:43:45;;;;;;;21.58;11.98;;;0.60;99.90;;;-1.06;100.00;101724.03;4972092;28;20050;-71
2023/04/06 04:46:11;;;;;;;28.02;12.23;;;0.70;99.90;;;-0.92;100.00;101730.31;4973430;28;20034;-71
2023/04/06 04:48:37;;;;;;;21.45;12.38;;;0.70;99.90;;;-0.81;100.00;101732.22;4970847;28;20041;-71
2023/04/06 04:51:04;;;;;;;25.42;12.85;;;0.80;99.90;;;-0.83;100.00;101724.44;4978384;28;20026;-72
2023/04/06 04:53:30;;;;;;;24.23;12.38;;;0.80;99.90;;;-0.90;100.00;101730.38;4970518;28;20070;-72
2023/04/06 04:55:56;;;;;;;22.55;12.30;;;0.80;99.90;;;-0.87;100.00;101733.84;4972234;28;20027;-71
2023/04/06 04:58:22;;;;;;;27.05;12.55;;;0.80;99.90;;;-0.87;100.00;101730.41;4974736;28;20037;-71
2023/04/06 05:00:48;;;;;;;21.27;11.85;;;0.80;99.90;;;-0.80;100.00;101739.13;4971239;28;20089;-71
2023/04/06 05:03:24;;;;;;;24.83;12.18;;;0.80;99.90;;;-0.79;100.00;101733.13;4978320;28;20045;-72
2023/04/06 05:05:50;;;;;;;20.90;11.85;;;0.80;99.90;;;-0.79;100.00;101736.56;4975346;28;20419;-72
2023/04/06 05:08:16;;;;;;;21.50;11.10;;;0.80;99.90;;;-0.77;100.00;101739.19;4972344;28;20038;-72
2023/04/06 05:10:44;;;;;;;22.33;12.85;;;0.80;99.90;;;-0.69;100.00;101740.16;4972800;28;20066;-71
2023/04/06 05:13:10;;;;;;;21.70;12.88;;;0.90;99.90;;;-0.62;100.00;101734.25;4977474;28;20758;-71
2023/04/06 05:15:40;;;;;;;22.98;11.50;;;0.90;99.90;;;-0.51;100.00;101747.34;4977792;28;20042;-71
2023/04/06 05:18:07;;;;;;;21.50;12.35;;;1.00;99.90;;;-0.43;100.00;101743.19;4973727;28;20066;-71
2023/04/06 05:20:34;;;;;;;25.77;12.95;;;1.00;99.90;;;-0.51;100.00;101739.59;4960168;28;20054;-71
2023/04/06 05:23:00;;;;;;;22.65;13.07;;;1.00;99.90;;;-0.15;100.00;101747.03;4972890;28;20114;-71
2023/04/06 05:25:27;;;;;;;29.65;13.65;;;1.40;99.90;;;1.37;100.00;101756.44;4968209;28;20125;-71
2023/04/06 05:27:53;;;;;;;22.52;12.50;;;2.00;99.90;;;2.56;95.59;101764.88;4978020;28;20041;-71
2023/04/06 05:30:19;;;;;;;20.83;11.20;;;2.20;99.90;;;1.40;93.71;101755.59;4973420;28;20588;-71
2023/04/06 05:32:45;;;;;;;20.05;11.57;;;2.20;99.90;;;0.92;92.42;101752.56;4970076;28;20176;-71
2023/04/06 05:35:11;;;;;;;22.95;12.45;;;2.20;99.90;;;1.71;91.87;101761.03;4968947;28;20035;-71
2023/04/06 05:37:38;;;;;;;24.23;11.55;;;2.60;99.90;;;3.39;87.83;101772.78;4974458;28;20078;-71
2023/04/06 05:40:05;;;;;;;23.95;12.15;;;2.90;99.90;;;3.01;84.79;101766.72;4972926;28;20050;-71
2023/04/06 05:42:39;;;;;;;18.98;10.82;;;3.10;99.90;;;2.98;83.95;101771.03;4961356;28;20035;-71
2023/04/06 05:45:08;;;;;;;16.40;11.27;;;3.20;99.90;;;2.95;83.02;101764.09;4960253;28;20038;-71
2023/04/06 05:47:35;;;;;;;22.85;11.20;;;3.30;99.90;;;2.60;82.82;101761.44;4970482;28;20160;-71
2023/04/06 05:50:01;;;;;;;24.15;11.60;;;3.30;99.90;;;2.80;83.08;101756.25;4972514;28;20562;-71
2023/04/06 05:52:26;;;;;;;25.05;12.13;;;3.50;99.90;;;3.65;82.00;101771.06;4973238;28;20030;-72
2023/04/06 05:54:53;;;;;;;21.63;11.70;;;3.50;99.90;;;3.30;81.22;101768.44;4974099;28;20037;-70
2023/04/06 05:57:19;;;;;;;22.25;11.68;;;3.70;99.90;;;3.21;80.94;101768.47;4960387;28;20046;-71
2023/04/06 05:59:45;;;;;;;18.58;11.10;;;3.80;99.90;;;3.51;80.80;101775.41;4970582;28;20043;-71
2023/04/06 06:02:11;;;;;;;19.92;11.68;;;4.00;99.90;;;4.44;79.18;101776.91;4976914;28;20035;-71
2023/04/06 06:04:37;;;;;;;17.25;10.93;;;4.30;99.90;;;4.50;78.39;101776.00;4972264;28;20034;-71
2023/04/06 06:07:03;;;;;;;18.80;11.25;;;4.50;99.90;;;4.53;77.27;101781.19;4975393;28;20035;-71
2023/04/06 06:09:29;;;;;;;21.83;10.85;;;4.60;99.90;;;4.40;77.34;101777.78;4958104;28;20730;-72
2023/04/06 06:11:55;;;;;;;20.60;9.85;;;4.70;99.90;;;5.09;76.69;101787.84;4970139;28;20071;-71
2023/04/06 06:14:21;;;;;;;18.77;11.68;;;4.90;99.90;;;5.81;74.80;101789.00;4967640;28;20026;-71
2023/04/06 06:16:47;;;;;;;19.88;10.88;;;5.10;99.90;;;5.49;73.88;101786.69;4976677;28;20129;-72
2023/04/06 06:19:13;;;;;;;14.82;10.32;;;5.20;99.90;;;5.04;74.13;101771.34;4976078;28;20085;-71
2023/04/06 06:21:39;;;;;;;16.25;9.95;;;5.10;99.90;;;3.97;76.33;101769.25;4969904;28;20030;-71
2023/04/06 06:24:07;;;;;;;17.63;10.98;;;4.80;99.90;;;3.83;78.10;101783.19;4979909;28;20030;-71
2023/04/06 06:26:35;;;;;;;17.10;10.55;;;4.70;99.90;;;3.86;79.52;101784.91;4978767;28;20065;-72
2023/04/06 06:29:01;;;;;;;20.83;10.60;;;4.70;99.90;;;4.38;78.96;101786.50;4977594;28;20035;-72
2023/04/06 06:31:26;;;;;;;17.55;10.20;;;4.80;99.90;;;5.05;78.17;101800.91;4975668;28;20424;-72
2023/04/06 06:33:52;;;;;;;18.77;10.38;;;5.20;99.90;;;6.30;75.30;101803.31;4980527;28;20030;-73
2023/04/06 06:36:18;;;;;;;17.15;10.43;;;5.80;99.90;;;7.32;72.56;101813.25;4974438;28;20525;-72
2023/04/06 06:38:45;;;;;;;13.85;9.80;;;6.50;99.90;;;8.70;69.03;101815.97;4972727;28;20063;-72
2023/04/06 06:41:11;;;;;;;14.73;8.57;;;7.40;99.90;;;9.59;64.58;101810.41;4977730;28;20043;-72
2023/04/06 06:43:37;;;;;;;13.50;8.57;;;7.90;99.90;;;8.57;65.06;101804.03;4972781;28;20057;-72
2023/04/06 06:46:04;;;;;;;15.13;8.23;;;8.30;99.90;;;10.09;63.22;101818.78;4959658;28;20130;-73
2023/04/06 06:48:30;;;;;;;12.80;8.05;;;8.50;99.90;;;9.51;62.64;101810.63;4964162;28;20085;-72
2023/04/06 06:50:57;;;;;;;9.20;6.43;;;8.70;99.90;;;9.97;61.51;101819.97;4976178;28;20025;-72
2023/04/06 06:53:24;;;;;;;12.00;6.90;;;9.60;99.90;;;12.93;57.34;101851.72;4960502;28;20097;-72
2023/04/06 06:55:50;;;;;;;9.45;6.50;;;10.70;99.90;;;14.36;53.26;101866.16;4989251;28;21533;-72
2023/04/06 06:58:19;;;;;;;11.57;6.70;;;11.90;99.90;;;15.32;50.60;101868.81;4959426;28;20034;-73
2023/04/06 07:00:46;;;;;;;11.73;6.53;;;13.00;99.90;;;15.94;48.64;101876.44;4998831;28;20053;-73
2023/04/06 07:03:12;;;;;;;9.27;5.93;;;13.60;99.90;;;15.75;47.71;101876.50;4976289;28;20038;-73
2023/04/06 07:05:38;;;;;;;10.05;6.10;;;14.10;99.90;;;15.35;47.42;101875.75;4987326;28;20077;-73
2023/04/06 07:08:04;;;;;;;9.20;5.85;;;14.10;99.90;;;15.57;47.86;101881.75;4970392;28;20407;-74
2023/04/06 07:10:30;;;;;;;8.90;5.43;;;14.40;99.80;;;15.50;47.29;101885.63;4966385;28;20120;-73
2023/04/06 07:12:56;;;;;;;9.07;5.55;;;14.80;99.80;;;15.99;46.87;101895.66;4973864;28;20035;-73
2023/04/06 07:15:22;;;;;;;6.25;5.07;;;15.60;99.90;;;17.18;45.54;101916.84;4966012;28;20045;-74
2023/04/06 07:17:48;;;;;;;8.45;5.30;;;16.40;99.90;;;18.48;44.26;101931.56;4971577;28;20466;-73
2023/04/06 07:20:15;;;;;;;7.38;4.75;;;17.30;97.30;;;18.88;42.48;101938.00;4962598;28;20050;-74
2023/04/06 07:22:44;;;;;;;10.52;5.45;;;17.90;95.60;;;18.71;42.05;101935.50;4963591;28;20027;-73
2023/04/06 07:25:10;;;;;;;8.43;5.10;;;18.20;94.60;;;18.37;41.84;101933.06;4976473;28;20518;-74
2023/04/06 07:27:36;;;;;;;11.98;5.22;;;18.50;96.00;;;19.29;41.51;101939.88;4939859;28;20045;-73
2023/04/06 07:30:02;;;;;;;7.13;4.53;;;18.60;94.00;;;18.71;41.31;101933.69;4979512;28;20030;-73
2023/04/06 07:32:29;;;;;;;8.52;4.78;;;18.90;93.00;;;19.08;40.69;101939.41;4989604;28;20483;-73
2023/04/06 07:34:56;;;;;;;8.13;4.80;;;19.10;91.60;;;19.03;40.19;101947.72;4975599;28;20162;-74
2023/04/06 07:37:22;;;;;;;7.13;4.60;;;19.40;92.00;;;19.22;40.28;101946.53;4961176;28;20034;-74
2023/04/06 07:39:48;;;;;;;6.38;4.13;;;20.00;92.80;;;20.50;39.27;101960.38;4971406;28;20061;-73
2023/04/06 07:42:14;;;;;;;7.18;4.22;;;20.80;93.00;;;21.46;37.69;101966.06;4962864;28;20074;-74
2023/04/06 07:44:40;;;;;;;8.63;4.40;;;21.60;90.10;;;21.92;36.43;101968.06;4950573;28;20031;-74
2023/04/06 07:47:05;;;;;;;9.68;4.78;;;22.20;86.70;;;22.22;36.01;101976.56;4980147;28;20029;-74
2023/04/06 07:49:32;;;;;;;6.75;4.43;;;22.90;89.80;;;23.09;35.77;101985.06;4973332;28;20113;-74
2023/04/06 07:52:00;;;;;;;8.18;4.57;;;23.10;82.50;;;22.06;35.44;101979.56;4963294;28;20145;-73
2023/04/06 07:54:26;;;;;;;8.38;4.65;;;23.20;81.80;;;22.08;35.47;101985.66;4972231;28;20419;-74
2023/04/06 07:56:52;;;;;;;8.32;4.68;;;23.10;80.50;;;21.58;35.40;101987.63;4966625;28;20070;-74
2023/04/06 07:59:17;;;;;;;7.72;4.13;;;23.10;83.10;;;21.92;35.56;101994.88;4978772;28;20627;-74
2023/04/06 08:01:44;;;;;;;7.00;4.18;;;23.00;78.20;;;21.23;35.23;101996.31;4973796;28;20388;-74
2023/04/06 08:04:10;;;;;;;10.23;4.50;;;23.00;82.90;;;21.91;35.64;102003.88;4962084;28;20049;-73
2023/04/06 08:06:36;;;;;;;8.05;4.20;;;23.30;81.20;;;22.12;35.02;102008.59;4938857;28;20022;-73
2023/04/06 08:09:03;;;;;;;6.68;4.07;;;23.50;80.80;;;22.17;35.07;102010.94;4972217;28;20622;-74
2023/04/06 08:11:29;;;;;;;8.52;4.20;;;23.70;78.10;;;22.25;34.31;102008.56;4953025;28;20499;-73
2023/04/06 08:13:56;;;;;;;8.00;4.32;;;23.70;77.70;;;22.24;34.10;102009.53;4980240;28;20070;-74
2023/04/06 08:16:23;;;;;;;5.43;3.75;;;23.80;77.40;;;22.30;34.28;102017.09;4977443;28;20125;-74
2023/04/06 08:18:49;;;;;;;11.18;4.10;;;23.70;76.10;;;21.79;34.13;102018.19;4974745;28;20061;-74
2023/04/06 08:21:15;;;;;;;6.47;3.83;;;23.30;73.40;;;20.94;34.11;102030.53;4972115;28;20558;-73
2023/04/06 08:23:41;;;;;;;7.13;4.18;;;22.80;74.70;;;20.42;35.06;102017.06;4977662;28;20039;-73
2023/04/06 08:26:07;;;;;;;6.10;3.95;;;22.50;76.80;;;20.48;35.15;102023.84;4975127;28;20035;-73
2023/04/06 08:28:34;;;;;;;9.23;4.15;;;22.20;77.40;;;20.53;34.99;102023.50;4977665;28;20443;-74
2023/04/06 08:31:06;;;;;;;8.13;3.90;;;22.20;79.40;;;20.76;35.37;102025.50;4971626;28;20034;-73
2023/04/06 08:33:36;;;;;;;7.97;4.35;;;22.00;74.20;;;19.79;35.01;102021.25;4964631;28;20038;-74
2023/04/06 08:36:22;;;;;;;6.78;3.90;;;21.60;77.10;;;19.45;35.98;102012.69;4952531;28;20509;-73
2023/04/06 08:38:49;;;;;;;7.67;4.13;;;21.10;76.70;;;19.09;35.96;102017.69;4986484;28;20037;-74
2023/04/06 08:41:17;;;;;;;7.55;4.00;;;20.70;76.60;;;18.70;36.39;102008.47;4971701;28;20042;-73
2023/04/06 08:43:56;;;;;;;5.85;3.92;;;20.60;79.70;;;18.40;36.25;102004.91;4958270;28;20049;-74
2023/04/06 08:46:28;;;;;;;11.00;4.18;;;20.40;80.10;;;18.83;36.72;102022.81;4972506;28;20029;-73
2023/04/06 08:48:55;;;;;;;9.68;4.53;;;20.30;79.90;;;19.02;36.33;102028.75;4968198;28;20402;-74
2023/04/06 08:51:23;;;;;;;8.23;4.15;;;20.20;81.00;;;19.00;37.15;102025.31;4979169;28;20296;-74
2023/04/06 08:53:50;;;;;;;6.07;4.30;;;20.10;80.60;;;18.55;37.06;102019.13;4985725;28;20556;-74
2023/04/06 08:56:16;;;;;;;7.55;4.38;;;19.70;78.60;;;18.09;36.90;102029.81;4973727;28;20035;-74
2023/04/06 08:58:43;;;;;;;7.82;4.20;;;19.50;80.70;;;17.93;37.29;102021.84;4969365;28;20130;-74
2023/04/06 09:01:13;;;;;;;7.95;3.92;;;19.20;80.30;;;17.68;37.38;102017.00;4959190;28;20101;-74
2023/04/06 09:03:41;;;;;;;7.43;3.80;;;18.90;80.20;;;17.35;37.52;102031.25;4989098;28;20027;-74
2023/04/06 09:06:11;;;;;;;9.48;4.28;;;18.60;81.70;;;17.30;38.32;102019.13;4979066;28;20569;-74
2023/04/06 09:08:42;;;;;;;6.30;3.80;;;17.80;81.00;;;15.97;39.81;102001.13;4990836;28;20018;-74
2023/04/06 09:11:12;;;;;;;9.55;3.70;;;17.30;80.80;;;15.69;39.16;102007.72;4955087;28;20117;-74
2023/04/06 09:13:52;;;;;;;6.05;3.88;;;16.90;84.00;;;15.60;39.87;102002.88;4977495;28;20026;-74
2023/04/06 09:16:19;;;;;;;8.45;3.83;;;16.60;85.10;;;15.10;40.64;102001.63;4988490;28;20509;-74
2023/04/06 09:18:46;;;;;;;7.25;3.75;;;16.10;84.50;;;14.33;41.22;101991.69;4973496;28;20054;-74
2023/04/06 09:21:16;;;;;;;6.95;3.50;;;15.70;83.10;;;14.15;40.62;101990.69;4955036;28;20030;-74
2023/04/06 09:23:42;;;;;;;8.43;3.42;;;15.50;84.80;;;13.92;41.36;101981.03;4978630;28;20038;-74
2023/04/06 09:26:19;;;;;;;7.07;3.13;;;15.20;83.50;;;13.49;41.38;101977.44;4971627;28;20076;-73
2023/04/06 09:28:57;;;;;;;6.10;3.22;;;14.90;87.00;;;13.35;42.90;101969.19;4987564;28;20036;-73
2023/04/06 09:31:34;;;;;;;5.28;3.00;;;14.70;83.00;;;13.14;40.95;101990.19;4976061;28;20473;-74
2023/04/06 09:34:03;;;;;;;7.63;3.67;;;14.60;86.90;;;13.16;42.03;101997.22;4972162;28;20641;-73
2023/04/06 09:36:40;;;;;;;6.22;3.22;;;14.50;87.00;;;13.26;42.36;101982.72;4979537;28;20038;-73
2023/04/06 09:39:12;;;;;;;6.63;2.92;;;14.40;87.10;;;13.29;42.08;101985.28;4985799;28;20410;-74
2023/04/06 09:41:39;;;;;;;5.70;3.20;;;14.40;86.10;;;12.93;42.05;101983.91;4986562;28;20058;-74
2023/04/06 09:44:14;;;;;;;7.82;3.53;;;14.30;89.20;;;13.03;43.11;101976.50;4972944;28;20041;-73
2023/04/06 09:46:46;;;;;;;4.60;3.07;;;14.20;86.00;;;12.90;41.77;101983.16;4973770;28;20049;-74
2023/04/06 09:49:15;;;;;;;7.18;3.33;;;14.20;86.20;;;12.88;41.65;101985.84;4979796;28;20027;-74
2023/04/06 09:51:48;;;;;;;5.80;3.53;;;14.20;84.90;;;13.02;41.97;101982.69;4972767;28;20514;-74
2023/04/06 09:54:25;;;;;;;9.25;3.47;;;14.30;87.10;;;13.22;41.95;101971.41;4988382;28;20506;-74
2023/04/06 09:57:02;;;;;;;8.50;3.42;;;14.40;87.90;;;13.29;42.00;101978.22;4966517;28;20554;-73
2023/04/06 09:59:51;;;;;;;5.35;3.10;;;14.30;83.10;;;12.80;40.95;101981.78;4980668;28;20050;-73
2023/04/06 10:02:55;;;;;;;6.25;3.47;;;14.20;83.70;;;12.57;40.70;101980.81;4993976;28;20490;-74
2023/04/06 10:05:50;;;;;;;5.38;2.78;;;14.00;84.70;;;12.80;41.76;101979.13;4968817;28;20039;-74
2023/04/06 10:08:18;;;;;;;6.47;3.05;;;14.10;87.30;;;13.03;41.99;101975.66;4965751;28;20038;-74
2023/04/06 10:10:46;;;;;;;8.20;3.05;;;14.20;88.90;;;13.29;42.51;101980.84;4980435;28;20121;-74